Cochrane — D5HE9 — position and weather

sailwx.info

Track history (hours):
 
Tides and Currents Weather Stations Pressure Air Temp Water Temp Dewpoint Dewpoint Depression Visibility Wind Speed Wind Dir Waves Ship Positions

Cochrane

Last reported at 2018-Apr-17 11:07 UTC. Time now 2018-Apr-24 12:45 UTC.
Position N 35°02' E 129°37'.

Length 300 m; draft 9 m.

Type: Cargo ship. MMSI: 636016664.

Date/timePositionNaut miles runAvg speedWind from/ knotsBaromVisibWave heightAir tempDewpointWater temp
2018-Apr-17 11:07N 35°02' E 129°37'110.3
2018-Apr-17 11:00N 35°02' E 129°36'  
2018-Apr-12 20:57N 35°05' E 128°49'0 0.0
2018-Apr-12 20:30N 35°05' E 128°49'0 0.0
2018-Apr-12 20:00N 35°05' E 128°49'0 0.0
2018-Apr-12 19:30N 35°05' E 128°49'0 0.0
2018-Apr-12 16:09N 35°05' E 128°49'0 0.0
2018-Apr-12 06:03N 35°05' E 128°49'61 5.4
2018-Apr-11 18:35N 34°03' E 128°45'615.0
2018-Apr-11 18:11N 33°58' E 128°43'415.0
2018-Apr-11 17:55N 33°54' E 128°41'614.8
2018-Apr-11 17:30N 33°48' E 128°40'714.6
2018-Apr-11 17:00N 33°41' E 128°38'714.9
2018-Apr-11 16:30N 33°33' E 128°36'715.1
2018-Apr-11 16:00N 33°26' E 128°35'714.9
2018-Apr-11 15:30N 33°19' E 128°33'815.2
2018-Apr-11 15:00N 33°11' E 128°31'815.1
2018-Apr-11 14:30N 33°04' E 128°30'1015.1
2018-Apr-11 13:49N 32°53' E 128°27'515.2
2018-Apr-11 13:30N 32°49' E 128°26'1215.3
2018-Apr-11 12:45N 32°37' E 128°24'48715.3
2018-Apr-10 04:52N 34°03' E 137°58'1019.7
2018-Apr-10 04:23N 34°07' E 138°08'4319.1
2018-Apr-10 02:09N 34°25' E 138°55'319.0
2018-Apr-10 02:00N 34°26' E 138°58'1018.9
2018-Apr-10 01:30N 34°31' E 139°09'1018.6
2018-Apr-10 00:58N 34°36' E 139°18'1718.0
2018-Apr-10 00:03N 34°47' E 139°33'120.3
2018-Apr-10 00:00N 34°48' E 139°34'1020.8
2018-Apr-09 23:30N 34°58' E 139°39'1019.7
2018-Apr-09 23:00N 35°06' E 139°44'612.9
2018-Apr-09 22:30N 35°13' E 139°46'611.5
2018-Apr-09 22:00N 35°18' E 139°44'611.4
2018-Apr-09 21:30N 35°23' E 139°41'1 2.1
2018-Apr-09 21:00N 35°24' E 139°41'0 0.0
2018-Apr-09 20:30N 35°24' E 139°41'0 0.0
2018-Apr-09 20:00N 35°24' E 139°41'0 0.0
2018-Apr-09 19:30N 35°24' E 139°41'0 0.1
2018-Apr-09 19:00N 35°24' E 139°41'0 0.1
2018-Apr-09 18:30N 35°24' E 139°41'0 0.0
2018-Apr-09 18:00N 35°24' E 139°41'0 0.0
2018-Apr-09 17:30N 35°24' E 139°41'0 0.0
2018-Apr-09 17:00N 35°24' E 139°41'0 0.0
2018-Apr-09 16:30N 35°24' E 139°41'0 0.0
2018-Apr-09 16:00N 35°24' E 139°41'0 0.0
2018-Apr-09 15:29N 35°24' E 139°41'0 0.0
2018-Apr-09 15:00N 35°24' E 139°41'0 0.0
2018-Apr-09 14:30N 35°24' E 139°41'0 0.0
2018-Apr-09 13:59N 35°24' E 139°41'0 0.0
2018-Apr-09 13:30N 35°24' E 139°41'0 0.0
2018-Apr-09 13:00N 35°24' E 139°41'0 0.0
2018-Apr-09 12:30N 35°24' E 139°41'0 0.0
2018-Apr-09 12:00N 35°24' E 139°41'0 0.0
2018-Apr-09 11:29N 35°24' E 139°41'0 0.0
2018-Apr-09 10:59N 35°24' E 139°41'0 0.0
2018-Apr-09 10:30N 35°24' E 139°41'0 0.0
2018-Apr-09 09:59N 35°24' E 139°41'0 0.0
2018-Apr-09 09:29N 35°24' E 139°41'0 0.0
2018-Apr-09 09:00N 35°24' E 139°41'0 0.0
2018-Apr-09 08:30N 35°24' E 139°41'0 0.0
2018-Apr-09 08:00N 35°24' E 139°41'0 0.0
2018-Apr-09 07:29N 35°24' E 139°41'0 0.0
2018-Apr-09 07:00N 35°24' E 139°41'0 0.0
2018-Apr-09 06:31N 35°24' E 139°41'0 0.6
2018-Apr-09 06:01N 35°24' E 139°41'1 2.6
2018-Apr-09 05:30N 35°23' E 139°41'4 7.5
2018-Apr-09 05:00N 35°19' E 139°43'611.2
2018-Apr-09 04:30N 35°15' E 139°47'510.7
2018-Apr-09 04:01N 35°09' E 139°47'4 7.3
2018-Apr-09 03:30N 35°06' E 139°46'510.3
2018-Apr-09 03:00N 35°01' E 139°43'611.1
2018-Apr-09 02:30N 34°56' E 139°40'2 3.8
2018-Apr-09 02:00N 34°54' E 139°41'5 8.4
2018-Apr-09 01:28N 34°50' E 139°43'4 9.6
2018-Apr-09 01:00N 34°50' E 139°48'510.2
2018-Apr-09 00:29N 34°49' E 139°55'510.0
2018-Apr-08 23:57N 34°49' E 140°01'612.6
2018-Apr-08 23:30N 34°49' E 140°08'815.7
2018-Apr-08 23:00N 34°48' E 140°18'1217.5
2018-Apr-08 22:18N 34°48' E 140°33'  
Track history (hours):
 
Tides and Currents Weather Stations Pressure Air Temp Water Temp Dewpoint Dewpoint Depression Visibility Wind Speed Wind Dir Waves Ship Positions

Cochrane

Last reported at 2018-Apr-17 11:07 UTC. Time now 2018-Apr-24 12:45 UTC.
Position N 35°02' E 129°37'.

Length 300 m; draft 9 m.

Type: Cargo ship. MMSI: 636016664.

Date/timePositionNaut miles runAvg speedWind from/ knotsBaromVisibWave heightAir tempDewpointWater temp
2018-Apr-17 11:07N 35°02' E 129°37'110.3
2018-Apr-17 11:00N 35°02' E 129°36'  
2018-Apr-12 20:57N 35°05' E 128°49'0 0.0
2018-Apr-12 20:30N 35°05' E 128°49'0 0.0
2018-Apr-12 20:00N 35°05' E 128°49'0 0.0
2018-Apr-12 19:30N 35°05' E 128°49'0 0.0
2018-Apr-12 16:09N 35°05' E 128°49'0 0.0
2018-Apr-12 06:03N 35°05' E 128°49'61 5.4
2018-Apr-11 18:35N 34°03' E 128°45'615.0
2018-Apr-11 18:11N 33°58' E 128°43'415.0
2018-Apr-11 17:55N 33°54' E 128°41'614.8
2018-Apr-11 17:30N 33°48' E 128°40'714.6
2018-Apr-11 17:00N 33°41' E 128°38'714.9
2018-Apr-11 16:30N 33°33' E 128°36'715.1
2018-Apr-11 16:00N 33°26' E 128°35'714.9
2018-Apr-11 15:30N 33°19' E 128°33'815.2
2018-Apr-11 15:00N 33°11' E 128°31'815.1
2018-Apr-11 14:30N 33°04' E 128°30'1015.1
2018-Apr-11 13:49N 32°53' E 128°27'515.2
2018-Apr-11 13:30N 32°49' E 128°26'1215.3
2018-Apr-11 12:45N 32°37' E 128°24'48715.3
2018-Apr-10 04:52N 34°03' E 137°58'1019.7
2018-Apr-10 04:23N 34°07' E 138°08'4319.1
2018-Apr-10 02:09N 34°25' E 138°55'319.0
2018-Apr-10 02:00N 34°26' E 138°58'1018.9
2018-Apr-10 01:30N 34°31' E 139°09'1018.6
2018-Apr-10 00:58N 34°36' E 139°18'1718.0
2018-Apr-10 00:03N 34°47' E 139°33'120.3
2018-Apr-10 00:00N 34°48' E 139°34'1020.8
2018-Apr-09 23:30N 34°58' E 139°39'1019.7
2018-Apr-09 23:00N 35°06' E 139°44'612.9
2018-Apr-09 22:30N 35°13' E 139°46'611.5
2018-Apr-09 22:00N 35°18' E 139°44'611.4
2018-Apr-09 21:30N 35°23' E 139°41'1 2.1
2018-Apr-09 21:00N 35°24' E 139°41'0 0.0
2018-Apr-09 20:30N 35°24' E 139°41'0 0.0
2018-Apr-09 20:00N 35°24' E 139°41'0 0.0
2018-Apr-09 19:30N 35°24' E 139°41'0 0.1
2018-Apr-09 19:00N 35°24' E 139°41'0 0.1
2018-Apr-09 18:30N 35°24' E 139°41'0 0.0
2018-Apr-09 18:00N 35°24' E 139°41'0 0.0
2018-Apr-09 17:30N 35°24' E 139°41'0 0.0
2018-Apr-09 17:00N 35°24' E 139°41'0 0.0
2018-Apr-09 16:30N 35°24' E 139°41'0 0.0
2018-Apr-09 16:00N 35°24' E 139°41'0 0.0
2018-Apr-09 15:29N 35°24' E 139°41'0 0.0
2018-Apr-09 15:00N 35°24' E 139°41'0 0.0
2018-Apr-09 14:30N 35°24' E 139°41'0 0.0
2018-Apr-09 13:59N 35°24' E 139°41'0 0.0
2018-Apr-09 13:30N 35°24' E 139°41'0 0.0
2018-Apr-09 13:00N 35°24' E 139°41'0 0.0
2018-Apr-09 12:30N 35°24' E 139°41'0 0.0
2018-Apr-09 12:00N 35°24' E 139°41'0 0.0
2018-Apr-09 11:29N 35°24' E 139°41'0 0.0
2018-Apr-09 10:59N 35°24' E 139°41'0 0.0
2018-Apr-09 10:30N 35°24' E 139°41'0 0.0
2018-Apr-09 09:59N 35°24' E 139°41'0 0.0
2018-Apr-09 09:29N 35°24' E 139°41'0 0.0
2018-Apr-09 09:00N 35°24' E 139°41'0 0.0
2018-Apr-09 08:30N 35°24' E 139°41'0 0.0
2018-Apr-09 08:00N 35°24' E 139°41'0 0.0
2018-Apr-09 07:29N 35°24' E 139°41'0 0.0
2018-Apr-09 07:00N 35°24' E 139°41'0 0.0
2018-Apr-09 06:31N 35°24' E 139°41'0 0.6
2018-Apr-09 06:01N 35°24' E 139°41'1 2.6
2018-Apr-09 05:30N 35°23' E 139°41'4 7.5
2018-Apr-09 05:00N 35°19' E 139°43'611.2
2018-Apr-09 04:30N 35°15' E 139°47'510.7
2018-Apr-09 04:01N 35°09' E 139°47'4 7.3
2018-Apr-09 03:30N 35°06' E 139°46'510.3
2018-Apr-09 03:00N 35°01' E 139°43'611.1
2018-Apr-09 02:30N 34°56' E 139°40'2 3.8
2018-Apr-09 02:00N 34°54' E 139°41'5 8.4
2018-Apr-09 01:28N 34°50' E 139°43'4 9.6
2018-Apr-09 01:00N 34°50' E 139°48'510.2
2018-Apr-09 00:29N 34°49' E 139°55'510.0
2018-Apr-08 23:57N 34°49' E 140°01'612.6
2018-Apr-08 23:30N 34°49' E 140°08'815.7
2018-Apr-08 23:00N 34°48' E 140°18'1217.5
2018-Apr-08 22:18N 34°48' E 140°33'  

Dump ship's entire track history